createdAt,value
2022-09-20T00:00:26.249Z,58.09
2022-09-20T00:01:23.534Z,58.18
2022-09-20T00:01:56.759Z,59.41
2022-09-20T00:02:29.832Z,60.27
2022-09-20T00:03:02.939Z,60.81
2022-09-20T00:03:38.632Z,61.44
2022-09-20T00:04:11.716Z,61.96
2022-09-20T00:04:44.829Z,62.57
2022-09-20T00:05:18.074Z,63.29
2022-09-20T00:05:51.312Z,63.67
2022-09-20T00:06:27.459Z,63.48
2022-09-20T00:07:00.508Z,63.06
2022-09-20T00:07:33.774Z,61.81
2022-09-20T00:08:10.596Z,60.70
2022-09-20T00:08:44.640Z,59.86
2022-09-20T00:09:17.742Z,58.52
2022-09-20T00:09:51.314Z,57.25
2022-09-20T00:10:24.802Z,56.66
2022-09-20T00:11:02.641Z,56.50
2022-09-20T00:11:37.279Z,56.66
2022-09-20T00:12:10.808Z,57.25
2022-09-20T00:12:44.076Z,58.02
2022-09-20T00:13:17.249Z,58.75
2022-09-20T00:13:53.338Z,59.44
2022-09-20T00:14:26.371Z,60.05
2022-09-20T00:14:59.386Z,60.85
2022-09-20T00:15:33.632Z,61.43
2022-09-20T00:16:09.692Z,61.90
2022-09-20T00:16:43.090Z,62.50
2022-09-20T00:17:16.346Z,63.39
2022-09-20T00:17:49.566Z,63.90
2022-09-20T00:18:22.950Z,63.59
2022-09-20T00:18:58.244Z,63.02
2022-09-20T00:19:31.412Z,62.05
2022-09-20T00:20:04.822Z,60.80
2022-09-20T00:20:45.358Z,59.67
2022-09-20T00:21:21.303Z,58.90
2022-09-20T00:21:54.347Z,57.31
2022-09-20T00:22:27.943Z,56.83
2022-09-20T00:23:01.060Z,56.92
2022-09-20T00:23:36.196Z,57.23
2022-09-20T00:24:11.054Z,57.77
2022-09-20T00:24:48.731Z,58.26
2022-09-20T00:25:22.756Z,59.00
2022-09-20T00:26:01.697Z,59.81
2022-09-20T00:26:34.861Z,60.26
2022-09-20T00:27:07.971Z,61.13
2022-09-20T00:27:41.163Z,61.75
2022-09-20T00:28:14.383Z,62.31
2022-09-20T00:28:47.698Z,62.82
2022-09-20T00:29:20.846Z,63.56
2022-09-20T00:29:54.072Z,63.91
2022-09-20T00:30:27.400Z,63.58
2022-09-20T00:31:01.230Z,62.74
2022-09-20T00:31:35.865Z,61.74
2022-09-20T00:32:09.057Z,60.79
2022-09-20T00:32:42.131Z,59.54
2022-09-20T00:33:15.584Z,58.51
2022-09-20T00:34:07.534Z,57.45
2022-09-20T00:34:59.481Z,56.91
2022-09-20T00:35:33.362Z,56.87
2022-09-20T00:36:06.492Z,57.77
2022-09-20T00:36:39.653Z,58.47
2022-09-20T00:37:12.729Z,59.06
2022-09-20T00:37:45.846Z,59.85
2022-09-20T00:38:20.705Z,60.47
2022-09-20T00:38:59.034Z,60.99
2022-09-20T00:39:32.249Z,61.71
2022-09-20T00:40:07.927Z,62.49
2022-09-20T00:40:42.851Z,63.14
2022-09-20T00:41:17.044Z,64.02
2022-09-20T00:41:50.029Z,64.12
2022-09-20T00:42:28.799Z,63.48
2022-09-20T00:43:01.915Z,62.79
2022-09-20T00:43:41.235Z,61.40
2022-09-20T00:44:56.211Z,60.63
2022-09-20T00:45:30.785Z,59.87
2022-09-20T00:46:05.356Z,57.95
2022-09-20T00:46:43.876Z,57.69
2022-09-20T00:47:25.119Z,57.85
2022-09-20T00:48:13.250Z,58.36
2022-09-20T00:48:47.101Z,58.93
2022-09-20T00:49:27.025Z,60.14
2022-09-20T00:50:24.556Z,60.65
2022-09-20T00:51:07.810Z,60.97
2022-09-20T00:51:46.570Z,62.28
2022-09-20T00:52:20.833Z,63.37
2022-09-20T00:53:07.677Z,64.09
2022-09-20T00:53:45.349Z,64.63
2022-09-20T00:54:20.958Z,63.65
2022-09-20T00:54:54.920Z,62.61
2022-09-20T00:55:29.464Z,61.62
2022-09-20T00:56:09.354Z,60.55
2022-09-20T00:56:44.342Z,59.93
2022-09-20T00:57:17.812Z,58.74
2022-09-20T00:57:51.438Z,57.94
2022-09-20T00:58:27.705Z,57.61
2022-09-20T00:59:19.050Z,57.66
2022-09-20T00:59:54.241Z,57.78
2022-09-20T01:00:28.243Z,58.85
2022-09-20T01:01:01.740Z,59.56
2022-09-20T01:01:35.717Z,60.12
2022-09-20T01:02:17.099Z,60.73
2022-09-20T01:02:55.453Z,61.11
2022-09-20T01:03:33.341Z,62.01
2022-09-20T01:04:06.606Z,62.64
2022-09-20T01:04:42.775Z,63.74
2022-09-20T01:05:18.936Z,64.16
2022-09-20T01:05:54.126Z,63.78
2022-09-20T01:06:27.967Z,62.88
2022-09-20T01:07:04.752Z,62.00
2022-09-20T01:07:38.395Z,61.34
2022-09-20T01:08:12.340Z,60.38
2022-09-20T01:08:51.009Z,59.53
2022-09-20T01:09:24.160Z,58.79
2022-09-20T01:09:57.700Z,57.82
2022-09-20T01:10:32.698Z,57.50
2022-09-20T01:11:06.108Z,57.48
2022-09-20T01:11:40.991Z,57.93
2022-09-20T01:12:19.458Z,58.57
2022-09-20T01:12:54.033Z,59.24
2022-09-20T01:13:27.137Z,59.98
2022-09-20T01:14:00.107Z,60.66
2022-09-20T01:14:34.752Z,61.37
2022-09-20T01:15:10.334Z,62.02
2022-09-20T01:15:46.935Z,62.59
2022-09-20T01:16:21.712Z,63.54
2022-09-20T01:16:57.875Z,63.87
2022-09-20T01:17:35.029Z,63.70
2022-09-20T01:18:10.322Z,63.12
2022-09-20T01:18:45.267Z,62.24
2022-09-20T01:19:42.915Z,61.34
2022-09-20T01:20:24.184Z,61.73
2022-09-20T01:20:58.660Z,59.60
2022-09-20T01:21:31.792Z,58.14
2022-09-20T01:22:16.107Z,57.65
2022-09-20T01:23:10.805Z,57.48
2022-09-20T01:24:06.910Z,57.48
2022-09-20T01:25:25.281Z,58.42
2022-09-20T01:26:23.348Z,59.04
2022-09-20T01:27:18.396Z,60.51
2022-09-20T01:27:54.012Z,61.56
2022-09-20T01:28:29.029Z,63.03
2022-09-20T01:29:46.602Z,64.02
2022-09-20T01:30:26.228Z,65.89
2022-09-20T01:31:09.117Z,63.58
2022-09-20T01:31:50.547Z,62.61
2022-09-20T01:32:29.850Z,61.46
2022-09-20T01:33:21.778Z,60.47
2022-09-20T01:34:01.439Z,60.32
2022-09-20T01:34:37.215Z,58.75
2022-09-20T01:35:11.893Z,57.67
2022-09-20T01:35:49.798Z,57.42
2022-09-20T01:36:33.712Z,57.54
2022-09-20T01:37:28.638Z,57.96
2022-09-20T01:38:31.281Z,58.50
2022-09-20T01:39:08.772Z,59.27
2022-09-20T01:40:04.430Z,60.99
2022-09-20T01:40:49.255Z,61.17
2022-09-20T01:41:29.378Z,62.47
2022-09-20T01:42:12.615Z,63.93
2022-09-20T01:43:03.358Z,64.51
2022-09-20T01:43:47.226Z,64.45
2022-09-20T01:44:38.768Z,62.87
2022-09-20T01:45:32.571Z,61.96
2022-09-20T01:46:32.954Z,60.57
2022-09-20T01:47:29.190Z,58.67
2022-09-20T01:48:14.211Z,57.32
2022-09-20T01:48:49.658Z,57.43
2022-09-20T01:49:37.939Z,58.19
2022-09-20T01:50:52.930Z,58.52
2022-09-20T01:52:10.474Z,58.94
2022-09-20T01:53:37.599Z,59.95
2022-09-20T01:54:10.623Z,60.92
2022-09-20T01:55:08.635Z,63.53
2022-09-20T01:56:03.399Z,65.04
2022-09-20T01:56:48.682Z,65.56
2022-09-20T01:57:30.752Z,64.60
2022-09-20T01:58:25.141Z,63.27
2022-09-20T01:59:19.906Z,62.70
2022-09-20T01:59:56.757Z,61.33
2022-09-20T02:00:35.243Z,59.47
2022-09-20T02:01:31.348Z,58.21
2022-09-20T02:02:22.733Z,57.41
2022-09-20T02:03:43.696Z,57.65
2022-09-20T02:04:34.969Z,57.88
2022-09-20T02:05:24.370Z,59.56
2022-09-20T02:06:19.235Z,60.56
2022-09-20T02:07:19.212Z,61.18
2022-09-20T02:08:08.318Z,62.66
2022-09-20T02:08:51.007Z,64.51
2022-09-20T02:09:33.003Z,64.10
2022-09-20T02:10:35.501Z,63.05
2022-09-20T02:11:20.999Z,62.63
2022-09-20T02:12:33.689Z,60.48
2022-09-20T02:13:20.701Z,59.12
2022-09-20T02:14:20.747Z,57.48
2022-09-20T02:15:01.179Z,57.27
2022-09-20T02:15:58.616Z,58.23
2022-09-20T02:16:57.222Z,58.52
2022-09-20T02:17:48.477Z,59.52
2022-09-20T02:18:52.520Z,60.68
2022-09-20T02:19:34.604Z,61.69
2022-09-20T02:20:23.689Z,62.95
2022-09-20T02:21:23.319Z,64.50
2022-09-20T02:22:15.104Z,64.68
2022-09-20T02:23:21.082Z,63.14
2022-09-20T02:24:15.926Z,62.47
2022-09-20T02:25:07.300Z,60.77
2022-09-20T02:26:01.357Z,59.15
2022-09-20T02:26:59.022Z,57.78
2022-09-20T02:27:40.979Z,57.53
2022-09-20T02:28:50.018Z,58.37
2022-09-20T02:29:33.866Z,59.11
2022-09-20T02:30:25.469Z,60.22
2022-09-20T02:31:32.802Z,60.83
2022-09-20T02:32:17.824Z,61.50
2022-09-20T02:33:18.122Z,63.18
2022-09-20T02:34:21.171Z,65.17
2022-09-20T02:35:13.489Z,65.26
2022-09-20T02:36:13.694Z,63.69
2022-09-20T02:37:05.547Z,62.47
2022-09-20T02:37:57.063Z,61.20
2022-09-20T02:38:52.522Z,59.97
2022-09-20T02:39:35.750Z,58.06
2022-09-20T02:40:11.910Z,57.83
2022-09-20T02:40:56.881Z,58.18
2022-09-20T02:41:42.641Z,58.65
2022-09-20T02:42:21.538Z,59.33
2022-09-20T02:43:18.075Z,60.44
2022-09-20T02:44:24.872Z,60.65
2022-09-20T02:45:16.396Z,61.18
2022-09-20T02:46:10.974Z,62.90
2022-09-20T02:46:56.456Z,64.15
2022-09-20T02:47:41.683Z,64.16
2022-09-20T02:48:18.238Z,63.53
2022-09-20T02:49:18.179Z,62.13
2022-09-20T02:50:29.169Z,62.26
2022-09-20T02:51:22.479Z,61.45
2022-09-20T02:52:07.673Z,59.27
2022-09-20T02:53:17.976Z,57.73
2022-09-20T02:54:00.131Z,57.19
2022-09-20T02:54:57.949Z,58.07
2022-09-20T02:56:08.657Z,58.36
2022-09-20T02:56:58.971Z,59.12
2022-09-20T02:58:06.348Z,60.50
2022-09-20T02:58:39.403Z,61.04
2022-09-20T02:59:48.571Z,63.01
2022-09-20T03:00:29.458Z,64.80
2022-09-20T03:01:25.814Z,64.33
2022-09-20T03:02:17.456Z,64.04
2022-09-20T03:03:18.113Z,62.25
2022-09-20T03:04:12.470Z,61.53
2022-09-20T03:05:11.546Z,59.76
2022-09-20T03:06:25.942Z,57.82
2022-09-20T03:07:34.324Z,57.31
2022-09-20T03:08:45.660Z,58.04
2022-09-20T03:09:39.209Z,58.76
2022-09-20T03:10:32.376Z,60.24
2022-09-20T03:11:26.591Z,61.23
2022-09-20T03:12:33.530Z,62.61
2022-09-20T03:13:37.598Z,64.42
2022-09-20T03:14:23.464Z,64.17
2022-09-20T03:15:21.230Z,62.43
2022-09-20T03:16:29.623Z,61.28
2022-09-20T03:17:26.732Z,60.85
2022-09-20T03:18:14.965Z,58.68
2022-09-20T03:19:13.002Z,57.23
2022-09-20T03:20:07.661Z,57.02
2022-09-20T03:21:02.342Z,57.46
2022-09-20T03:21:38.130Z,58.53
2022-09-20T03:22:23.201Z,60.04
2022-09-20T03:23:27.067Z,60.47
2022-09-20T03:24:24.049Z,61.26
2022-09-20T03:25:09.228Z,61.71
2022-09-20T03:26:21.451Z,63.23
2022-09-20T03:27:16.204Z,65.18
2022-09-20T03:27:58.193Z,64.29
2022-09-20T03:28:49.583Z,63.16
2022-09-20T03:29:43.179Z,62.63
2022-09-20T03:30:46.689Z,61.52
2022-09-20T03:31:46.005Z,61.00
2022-09-20T03:32:31.468Z,59.26
2022-09-20T03:33:22.676Z,57.77
2022-09-20T03:34:14.252Z,57.16
2022-09-20T03:35:06.646Z,57.11
2022-09-20T03:36:08.842Z,58.72
2022-09-20T03:37:10.061Z,59.59
2022-09-20T03:37:59.690Z,60.25
2022-09-20T03:38:55.514Z,61.90
2022-09-20T03:39:38.385Z,63.03
2022-09-20T03:40:29.876Z,64.42
2022-09-20T03:41:11.937Z,64.59
2022-09-20T03:42:18.322Z,63.20
2022-09-20T03:42:54.805Z,62.54
2022-09-20T03:44:05.553Z,59.73
2022-09-20T03:44:58.921Z,58.94
2022-09-20T03:46:12.773Z,57.54
2022-09-20T03:46:47.498Z,57.38
2022-09-20T03:47:37.195Z,58.75
2022-09-20T03:48:49.586Z,59.32
2022-09-20T03:49:42.188Z,59.57
2022-09-20T03:50:53.221Z,61.13
2022-09-20T03:51:41.691Z,61.59
2022-09-20T03:52:59.736Z,63.56
2022-09-20T03:54:04.373Z,65.94
2022-09-20T03:54:57.672Z,65.09
2022-09-20T03:55:49.622Z,62.74
2022-09-20T03:56:43.982Z,61.70
2022-09-20T03:57:35.941Z,60.54
2022-09-20T03:58:31.053Z,59.05
2022-09-20T03:59:25.959Z,57.57
2022-09-20T04:00:05.790Z,57.57
2022-09-20T04:01:16.532Z,58.30
2022-09-20T04:02:08.009Z,58.78
2022-09-20T04:03:18.707Z,59.78
2022-09-20T04:04:05.930Z,60.45
2022-09-20T04:04:53.889Z,61.95
2022-09-20T04:05:51.273Z,63.11
2022-09-20T04:07:03.068Z,64.19
2022-09-20T04:07:48.377Z,65.44
2022-09-20T04:08:47.892Z,63.21
2022-09-20T04:09:38.848Z,62.64
2022-09-20T04:10:25.976Z,61.31
2022-09-20T04:11:18.099Z,59.84
2022-09-20T04:12:01.876Z,58.71
2022-09-20T04:12:50.562Z,57.50
2022-09-20T04:13:36.427Z,57.73
2022-09-20T04:14:18.891Z,58.08
2022-09-20T04:15:01.059Z,58.84
2022-09-20T04:15:51.804Z,59.60
2022-09-20T04:16:43.733Z,60.72
2022-09-20T04:17:35.565Z,61.86
2022-09-20T04:18:31.646Z,62.65
2022-09-20T04:19:22.842Z,64.45
2022-09-20T04:20:14.653Z,63.97
2022-09-20T04:20:55.631Z,63.25
2022-09-20T04:21:43.915Z,61.79
2022-09-20T04:22:20.901Z,61.20
2022-09-20T04:22:59.105Z,60.00
2022-09-20T04:23:57.022Z,59.40
2022-09-20T04:24:30.251Z,58.29
2022-09-20T04:25:14.925Z,58.30
2022-09-20T04:25:51.083Z,58.53
2022-09-20T04:26:31.431Z,59.25
2022-09-20T04:27:15.546Z,59.76
2022-09-20T04:28:00.472Z,60.54
2022-09-20T04:28:55.640Z,61.53
2022-09-20T04:29:53.356Z,62.78
2022-09-20T04:30:30.686Z,64.14
2022-09-20T04:31:24.924Z,63.63
2022-09-20T04:32:22.142Z,63.39
2022-09-20T04:33:20.393Z,62.82
2022-09-20T04:33:57.715Z,61.35
2022-09-20T04:34:57.887Z,60.18
2022-09-20T04:36:11.081Z,59.80
2022-09-20T04:36:58.513Z,57.79
2022-09-20T04:37:38.722Z,58.04
2022-09-20T04:38:17.593Z,59.05
2022-09-20T04:39:05.309Z,59.63
2022-09-20T04:40:00.404Z,60.38
2022-09-20T04:40:43.015Z,61.11
2022-09-20T04:41:51.573Z,62.30
2022-09-20T04:43:15.656Z,63.55
2022-09-20T04:44:11.839Z,65.17
2022-09-20T04:45:24.364Z,62.92
2022-09-20T04:46:25.691Z,63.25
2022-09-20T04:47:15.851Z,61.94
2022-09-20T04:48:42.719Z,59.87
2022-09-20T04:49:35.982Z,57.68
2022-09-20T04:50:15.038Z,57.54
2022-09-20T04:51:18.999Z,58.95
2022-09-20T04:52:14.162Z,58.85
2022-09-20T04:53:05.918Z,60.65
2022-09-20T04:54:08.298Z,61.43
2022-09-20T04:54:44.949Z,62.56
2022-09-20T04:55:29.779Z,63.89
2022-09-20T04:56:22.177Z,64.08
2022-09-20T04:57:24.802Z,63.41
2022-09-20T04:58:28.986Z,62.78
2022-09-20T04:59:11.102Z,62.10
2022-09-20T05:00:03.144Z,60.28
2022-09-20T05:01:22.883Z,59.60
2022-09-20T05:02:27.211Z,57.58
2022-09-20T05:03:19.016Z,57.74
2022-09-20T05:04:19.120Z,58.78
2022-09-20T05:05:11.054Z,59.58
2022-09-20T05:06:04.989Z,60.43
2022-09-20T05:06:56.628Z,61.88
2022-09-20T05:07:48.729Z,62.62
2022-09-20T05:08:43.753Z,64.48
2022-09-20T05:09:47.429Z,64.58
2022-09-20T05:10:55.744Z,63.28
2022-09-20T05:11:47.825Z,61.85
2022-09-20T05:12:36.365Z,59.81
2022-09-20T05:13:51.976Z,57.68
2022-09-20T05:14:51.696Z,57.04
2022-09-20T05:15:58.938Z,57.91
2022-09-20T05:16:53.785Z,58.82
2022-09-20T05:18:00.028Z,59.55
2022-09-20T05:19:07.777Z,61.15
2022-09-20T05:19:47.000Z,61.38
2022-09-20T05:20:25.882Z,63.33
2022-09-20T05:21:20.596Z,64.18
2022-09-20T05:22:31.582Z,64.68
2022-09-20T05:23:16.723Z,65.00
2022-09-20T05:24:08.436Z,62.79
2022-09-20T05:25:28.723Z,61.77
2022-09-20T05:26:08.518Z,61.12
2022-09-20T05:26:53.954Z,58.44
2022-09-20T05:27:48.891Z,57.50
2022-09-20T05:28:46.086Z,57.13
2022-09-20T05:29:42.667Z,57.91
2022-09-20T05:30:30.656Z,58.97
2022-09-20T05:31:22.426Z,59.50
2022-09-20T05:32:14.023Z,59.98
2022-09-20T05:33:24.736Z,60.88
2022-09-20T05:34:15.946Z,62.07
2022-09-20T05:35:07.894Z,63.05
2022-09-20T05:35:44.719Z,64.50
2022-09-20T05:36:20.808Z,63.85
2022-09-20T05:37:06.955Z,63.10
2022-09-20T05:38:14.023Z,62.55
2022-09-20T05:39:03.585Z,62.19
2022-09-20T05:40:17.958Z,60.47
2022-09-20T05:41:09.561Z,58.85
2022-09-20T05:42:08.361Z,57.54
2022-09-20T05:43:21.098Z,57.61
2022-09-20T05:44:22.508Z,58.24
2022-09-20T05:44:55.602Z,59.39
2022-09-20T05:45:40.717Z,61.28
2022-09-20T05:46:32.356Z,61.72
2022-09-20T05:47:28.741Z,62.78
2022-09-20T05:48:14.446Z,64.09
2022-09-20T05:48:59.577Z,63.92
2022-09-20T05:50:09.941Z,62.89
2022-09-20T05:50:45.975Z,62.80
2022-09-20T05:51:50.210Z,60.43
2022-09-20T05:52:29.580Z,60.72
2022-09-20T05:53:13.968Z,58.92
2022-09-20T05:54:05.590Z,57.80
2022-09-20T05:54:56.939Z,57.54
2022-09-20T05:55:35.991Z,57.77
2022-09-20T05:56:37.057Z,58.83
2022-09-20T05:57:47.752Z,59.10
2022-09-20T05:58:29.931Z,59.97
2022-09-20T05:59:24.484Z,61.81
2022-09-20T06:00:07.791Z,62.74
2022-09-20T06:00:56.623Z,63.93
2022-09-20T06:01:40.068Z,63.67
2022-09-20T06:02:42.000Z,63.22
2022-09-20T06:03:36.895Z,62.92
2022-09-20T06:04:38.920Z,61.82
2022-09-20T06:05:29.030Z,60.35
2022-09-20T06:06:10.958Z,59.20
2022-09-20T06:07:12.436Z,57.88
2022-09-20T06:08:04.689Z,57.45
2022-09-20T06:08:59.608Z,58.19
2022-09-20T06:09:35.455Z,59.04
2022-09-20T06:10:31.870Z,60.36
2022-09-20T06:11:13.749Z,60.59
2022-09-20T06:12:21.119Z,61.77
2022-09-20T06:13:15.955Z,62.94
2022-09-20T06:14:10.374Z,64.19
2022-09-20T06:15:12.369Z,64.02
2022-09-20T06:16:01.498Z,63.44
2022-09-20T06:16:40.793Z,62.12
2022-09-20T06:17:26.931Z,60.57
2022-09-20T06:18:37.002Z,60.09
2022-09-20T06:19:48.762Z,58.45
2022-09-20T06:20:37.297Z,57.20
2022-09-20T06:21:19.448Z,57.81
2022-09-20T06:22:03.477Z,58.74
2022-09-20T06:22:39.647Z,59.48
2022-09-20T06:23:13.227Z,60.42
2022-09-20T06:23:46.416Z,61.44
2022-09-20T06:24:43.311Z,61.99
2022-09-20T06:25:22.629Z,62.34
2022-09-20T06:26:24.017Z,63.82
2022-09-20T06:27:03.246Z,65.02
2022-09-20T06:27:41.055Z,63.00
2022-09-20T06:28:21.450Z,61.58
2022-09-20T06:29:00.232Z,60.95
2022-09-20T06:29:38.909Z,59.80
2022-09-20T06:30:23.078Z,58.99
2022-09-20T06:30:57.711Z,57.97
2022-09-20T06:31:30.931Z,57.73
2022-09-20T06:32:04.307Z,58.09
2022-09-20T06:33:00.540Z,58.54
2022-09-20T06:33:33.826Z,58.87
2022-09-20T06:34:13.619Z,60.36
2022-09-20T06:34:48.538Z,60.82
2022-09-20T06:35:26.519Z,61.74
2022-09-20T06:36:28.091Z,62.60
2022-09-20T06:38:06.811Z,63.74
2022-09-20T06:39:17.895Z,65.87
2022-09-20T06:40:47.095Z,63.65
2022-09-20T06:41:28.487Z,62.18
2022-09-20T06:42:01.507Z,60.07
2022-09-20T06:42:34.565Z,59.38
2022-09-20T06:43:07.587Z,57.66
2022-09-20T06:43:41.358Z,57.66
2022-09-20T06:44:14.490Z,58.07
2022-09-20T06:44:47.655Z,58.52
2022-09-20T06:45:20.757Z,59.15
2022-09-20T06:45:53.956Z,59.86
2022-09-20T06:46:32.407Z,60.35
2022-09-20T06:47:08.944Z,60.86
2022-09-20T06:47:42.122Z,61.66
2022-09-20T06:48:15.819Z,62.45
2022-09-20T06:48:51.450Z,63.23
2022-09-20T06:49:28.495Z,63.97
2022-09-20T06:50:01.614Z,64.33
2022-09-20T06:50:36.662Z,63.80
2022-09-20T06:51:10.638Z,63.09
2022-09-20T06:51:43.757Z,62.10
2022-09-20T06:52:19.666Z,61.15
2022-09-20T06:52:53.866Z,60.50
2022-09-20T06:53:31.140Z,59.71
2022-09-20T06:54:07.031Z,58.69
2022-09-20T06:54:46.074Z,57.83
2022-09-20T06:55:29.594Z,57.60
2022-09-20T06:56:03.543Z,57.71
2022-09-20T06:56:37.037Z,58.50
2022-09-20T06:57:10.915Z,59.16
2022-09-20T06:57:44.317Z,60.05
2022-09-20T06:58:17.593Z,60.61
2022-09-20T06:58:52.965Z,61.35
2022-09-20T06:59:26.068Z,61.84
2022-09-20T06:59:59.228Z,62.50
2022-09-20T07:00:32.405Z,63.31
2022-09-20T07:01:05.613Z,63.78
2022-09-20T07:01:39.216Z,63.80
2022-09-20T07:02:12.541Z,63.53
2022-09-20T07:02:46.990Z,62.81
2022-09-20T07:03:20.251Z,62.19
2022-09-20T07:03:53.509Z,61.32
2022-09-20T07:04:27.292Z,60.42
2022-09-20T07:05:02.209Z,59.81
2022-09-20T07:05:36.614Z,59.33
2022-09-20T07:06:10.826Z,58.55
2022-09-20T07:06:44.069Z,58.22
2022-09-20T07:07:20.760Z,58.47
2022-09-20T07:07:58.739Z,58.81
2022-09-20T07:08:32.651Z,59.35
2022-09-20T07:09:06.349Z,60.29
2022-09-20T07:09:39.431Z,60.92
2022-09-20T07:10:12.804Z,61.72
2022-09-20T07:10:45.942Z,62.36
2022-09-20T07:11:19.111Z,63.01
2022-09-20T07:11:52.141Z,63.71
2022-09-20T07:12:25.944Z,64.03
2022-09-20T07:13:00.874Z,63.83
2022-09-20T07:13:34.760Z,63.24
2022-09-20T07:14:08.091Z,62.29
2022-09-20T07:14:42.040Z,61.37
2022-09-20T07:15:16.761Z,60.73
2022-09-20T07:15:50.903Z,59.81
2022-09-20T07:16:24.859Z,59.02
2022-09-20T07:16:58.002Z,58.49
2022-09-20T07:17:31.130Z,58.03
2022-09-20T07:18:04.320Z,58.07
2022-09-20T07:18:37.503Z,58.27
2022-09-20T07:19:10.790Z,58.95
2022-09-20T07:19:43.957Z,59.50
2022-09-20T07:20:21.363Z,60.12
2022-09-20T07:20:56.064Z,60.87
2022-09-20T07:21:29.387Z,61.83
2022-09-20T07:22:03.187Z,62.57
2022-09-20T07:22:36.568Z,63.54
2022-09-20T07:23:10.372Z,63.85
2022-09-20T07:23:46.183Z,63.90
2022-09-20T07:24:20.458Z,63.38
2022-09-20T07:24:53.760Z,62.63
2022-09-20T07:25:27.695Z,61.81
2022-09-20T07:26:01.438Z,61.12
2022-09-20T07:26:35.303Z,60.29
2022-09-20T07:27:08.526Z,59.53
2022-09-20T07:27:41.800Z,58.68
2022-09-20T07:28:14.966Z,57.70
2022-09-20T07:28:49.781Z,57.55
2022-09-20T07:29:23.214Z,57.74
2022-09-20T07:29:56.782Z,58.40
2022-09-20T07:30:30.064Z,58.61
2022-09-20T07:31:03.126Z,59.33
2022-09-20T07:31:36.946Z,59.91
2022-09-20T07:32:10.187Z,60.58
2022-09-20T07:32:43.445Z,61.30
2022-09-20T07:33:25.293Z,62.08
2022-09-20T07:33:58.791Z,62.53
2022-09-20T07:34:32.407Z,63.51
2022-09-20T07:35:06.123Z,63.69
2022-09-20T07:35:39.309Z,63.33
2022-09-20T07:36:13.717Z,62.50
2022-09-20T07:36:51.629Z,61.78
2022-09-20T07:37:25.112Z,61.13
2022-09-20T07:37:58.773Z,59.97
2022-09-20T07:38:31.931Z,59.13
2022-09-20T07:39:05.024Z,58.23
2022-09-20T07:39:38.549Z,57.87
2022-09-20T07:40:12.272Z,58.04
2022-09-20T07:40:48.340Z,58.50
2022-09-20T07:41:23.206Z,58.83
2022-09-20T07:41:56.956Z,59.47
2022-09-20T07:42:30.532Z,60.09
2022-09-20T07:43:03.744Z,60.91
2022-09-20T07:43:37.457Z,61.63
2022-09-20T07:44:24.694Z,62.09
2022-09-20T07:44:58.191Z,62.47
2022-09-20T07:45:35.767Z,63.39
2022-09-20T07:46:11.437Z,63.55
2022-09-20T07:46:46.425Z,63.00
2022-09-20T07:47:19.475Z,62.19
2022-09-20T07:47:52.595Z,61.33
2022-09-20T07:48:31.614Z,60.47
2022-09-20T07:49:07.023Z,59.69
2022-09-20T07:49:40.123Z,58.59
2022-09-20T07:50:13.474Z,57.71
2022-09-20T07:50:54.362Z,57.42
2022-09-20T07:51:27.765Z,57.63
2022-09-20T07:52:01.094Z,58.37
2022-09-20T07:52:34.272Z,58.75
2022-09-20T07:53:07.400Z,59.44
2022-09-20T07:53:41.600Z,60.12
2022-09-20T07:54:15.121Z,60.85
2022-09-20T07:54:50.253Z,61.65
2022-09-20T07:55:23.309Z,62.33
2022-09-20T07:55:57.312Z,63.08
2022-09-20T07:56:30.376Z,63.73
2022-09-20T07:57:05.898Z,63.81
2022-09-20T07:57:38.994Z,63.49
2022-09-20T07:58:12.132Z,62.86
2022-09-20T07:58:50.044Z,62.06
2022-09-20T07:59:26.230Z,61.60
2022-09-20T07:59:59.234Z,60.46
2022-09-20T08:00:32.428Z,59.65
2022-09-20T08:01:08.976Z,58.88
2022-09-20T08:01:43.307Z,58.10
2022-09-20T08:02:17.236Z,57.78
2022-09-20T08:02:59.309Z,58.08
2022-09-20T08:03:34.875Z,58.17
2022-09-20T08:04:09.292Z,59.02
2022-09-20T08:04:43.721Z,59.71
2022-09-20T08:05:16.890Z,60.42
2022-09-20T08:05:50.558Z,61.16
2022-09-20T08:06:24.590Z,61.80
2022-09-20T08:06:58.862Z,62.24
2022-09-20T08:07:32.012Z,63.08
2022-09-20T08:08:05.134Z,63.88
2022-09-20T08:08:43.658Z,64.17
2022-09-20T08:09:16.924Z,64.25
2022-09-20T08:09:50.846Z,63.29
2022-09-20T08:10:25.787Z,62.48
2022-09-20T08:11:07.099Z,61.35
2022-09-20T08:11:43.183Z,61.11
2022-09-20T08:14:16.710Z,58.27
2022-09-20T08:14:49.922Z,58.29
2022-09-20T08:15:23.130Z,58.81
2022-09-20T08:16:04.167Z,59.16
2022-09-20T08:16:43.543Z,59.52
2022-09-20T08:17:16.701Z,60.56
2022-09-20T08:17:49.785Z,61.61
2022-09-20T08:18:22.831Z,61.84
2022-09-20T08:18:59.118Z,62.42
2022-09-20T08:19:32.227Z,63.06
2022-09-20T08:20:06.739Z,63.61
2022-09-20T08:20:39.867Z,63.54
2022-09-20T08:21:14.246Z,63.36
2022-09-20T08:21:48.208Z,62.78
2022-09-20T08:22:22.405Z,62.04
2022-09-20T08:23:19.454Z,61.39
2022-09-20T08:23:49.306Z,61.21
2022-09-20T08:24:22.708Z,59.72
2022-09-20T08:24:55.943Z,58.90
2022-09-20T08:25:29.831Z,58.40
2022-09-20T08:26:04.201Z,58.03
2022-09-20T08:26:37.466Z,57.97
2022-09-20T08:27:10.516Z,58.26
2022-09-20T08:27:43.840Z,58.99
2022-09-20T08:28:16.930Z,59.71
2022-09-20T08:28:53.901Z,60.21
2022-09-20T08:29:27.036Z,60.81
2022-09-20T08:30:01.380Z,61.74
2022-09-20T08:30:34.513Z,62.38
2022-09-20T08:31:10.392Z,62.98
2022-09-20T08:31:44.227Z,63.65
2022-09-20T08:32:17.336Z,63.72
2022-09-20T08:32:50.618Z,63.60
2022-09-20T08:33:24.163Z,63.24
2022-09-20T08:33:58.388Z,62.63
2022-09-20T08:34:32.082Z,62.02
2022-09-20T08:35:05.530Z,61.35
2022-09-20T08:35:38.671Z,60.98
2022-09-20T08:36:18.597Z,60.51
2022-09-20T08:36:56.717Z,60.22
2022-09-20T08:37:30.421Z,59.58
2022-09-20T08:39:58.829Z,58.63
2022-09-20T08:40:32.635Z,59.42
2022-09-20T08:41:16.179Z,60.23
2022-09-20T08:42:24.453Z,60.88
2022-09-20T08:42:58.225Z,61.26
2022-09-20T08:43:45.572Z,62.51
2022-09-20T08:44:45.185Z,63.24
2022-09-20T08:45:22.667Z,64.14
2022-09-20T08:46:13.900Z,63.47
2022-09-20T08:46:50.536Z,62.67
2022-09-20T08:47:31.453Z,61.70
2022-09-20T08:48:07.676Z,60.86
2022-09-20T08:48:42.160Z,59.99
2022-09-20T08:49:28.694Z,59.18
2022-09-20T08:50:10.213Z,58.34
2022-09-20T08:50:44.569Z,57.87
2022-09-20T08:51:26.152Z,58.15
2022-09-20T08:52:01.636Z,58.48
2022-09-20T08:52:38.261Z,59.29
2022-09-20T08:53:14.916Z,59.65
2022-09-20T08:53:59.152Z,60.14
2022-09-20T08:54:35.472Z,60.57
2022-09-20T08:55:19.036Z,61.45
2022-09-20T08:55:52.594Z,61.72
2022-09-20T08:56:36.736Z,62.61
2022-09-20T08:57:15.698Z,63.36
2022-09-20T08:57:54.819Z,63.39
2022-09-20T08:58:28.404Z,63.09
2022-09-20T08:59:01.497Z,62.31
2022-09-20T08:59:35.380Z,61.46
2022-09-20T09:00:20.046Z,60.68
2022-09-20T09:00:56.423Z,60.25
2022-09-20T09:01:31.963Z,59.01
2022-09-20T09:02:18.453Z,58.29
2022-09-20T09:02:55.805Z,57.97
2022-09-20T09:03:29.060Z,58.42
2022-09-20T09:04:13.828Z,58.84
2022-09-20T09:04:49.106Z,59.29
2022-09-20T09:05:54.391Z,60.22
2022-09-20T09:06:27.578Z,59.93
2022-09-20T09:07:00.801Z,61.66
2022-09-20T09:07:33.860Z,62.22
2022-09-20T09:08:16.863Z,62.94
2022-09-20T09:08:53.674Z,63.36
2022-09-20T09:09:29.429Z,63.52
2022-09-20T09:10:03.406Z,63.13
2022-09-20T09:10:43.314Z,62.49
2022-09-20T09:11:19.142Z,62.15
2022-09-20T09:11:54.734Z,61.16
2022-09-20T09:12:30.988Z,60.30
2022-09-20T09:13:05.804Z,59.37
2022-09-20T09:13:49.476Z,58.47
2022-09-20T09:14:49.786Z,57.87
2022-09-20T09:15:32.871Z,57.82
2022-09-20T09:16:11.522Z,58.44
2022-09-20T09:16:45.019Z,59.33
2022-09-20T09:17:27.578Z,60.19
2022-09-20T09:18:01.621Z,60.56
2022-09-20T09:18:39.475Z,61.49
2022-09-20T09:19:51.573Z,61.85
2022-09-20T09:20:25.685Z,62.31
2022-09-20T09:20:59.547Z,62.97
2022-09-20T09:21:33.939Z,62.55
2022-09-20T09:22:07.058Z,61.68
2022-09-20T09:22:43.377Z,61.05
2022-09-20T09:23:26.379Z,60.22
2022-09-20T09:24:06.083Z,59.77
2022-09-20T09:24:39.162Z,59.03
2022-09-20T09:25:14.934Z,58.35
2022-09-20T09:25:49.118Z,58.12
2022-09-20T09:26:24.209Z,58.31
2022-09-20T09:27:29.460Z,59.14
2022-09-20T09:28:13.663Z,59.42
2022-09-20T09:28:48.741Z,60.75
2022-09-20T09:29:23.988Z,61.66
2022-09-20T09:29:57.017Z,62.32
2022-09-20T09:30:33.044Z,62.97